Time;durP1;ratioP1;P1;durP2;ratioP2;P2;SDS_P1;SDS_P2;PMS_P1;PMS_P2;Temp;Humidity;BMP_temperature;BMP_pressure;BME280_temperature;BME280_humidity;BME280_pressure;Samples;Min_cycle;Max_cycle;Signal;HPM_P1;HPM_P2
2022/10/20 00:01:00;;;;;;;;;;;8.10;99.90;;;;;;5116067;27;19996;-74
2022/10/20 00:03:27;;;;;;;;;;;8.10;99.90;;;;;;5121753;27;19973;-73
2022/10/20 00:05:54;;;;;;;;;;;10.30;99.90;;;;;;5115049;27;19931;-74
2022/10/20 00:08:21;;;;;;;;;;;8.10;99.90;;;;;;5116209;27;19946;-73
2022/10/20 00:10:56;;;;;;;;;;;8.00;99.90;;;;;;5114239;27;19927;-73
2022/10/20 00:13:23;;;;;;;;;;;8.00;99.90;;;;;;5107919;27;19939;-73
2022/10/20 00:15:49;;;;;;;;;;;8.00;99.90;;;;;;5107631;28;19923;-74
2022/10/20 00:18:17;;;;;;;;;;;7.90;99.90;;;;;;5115459;27;19927;-74
2022/10/20 00:20:44;;;;;;;;;;;7.90;99.90;;;;;;5110829;27;20422;-76
2022/10/20 00:23:10;;;;;;;;;;;7.90;99.90;;;;;;5117391;27;20429;-76
2022/10/20 00:25:37;;;;;;;;;;;7.80;99.90;;;;;;5114515;27;19927;-76
2022/10/20 00:28:05;;;;;;;;;;;7.80;99.90;;;;;;5120217;27;19932;-76
2022/10/20 00:30:33;;;;;;;;;;;7.80;99.90;;;;;;5111880;27;19927;-76
2022/10/20 00:32:59;;;;;;;;;;;7.80;99.90;;;;;;5110598;27;19927;-76
2022/10/20 00:35:26;;;;;;;;;;;7.80;99.90;;;;;;5110586;27;19934;-76
2022/10/20 00:37:53;;;;;;;;;;;7.80;99.90;;;;;;5110095;27;19935;-76
2022/10/20 00:40:19;;;;;;;;;;;7.80;99.90;;;;;;5117491;27;19964;-76
2022/10/20 00:42:47;;;;;;;;;;;7.80;99.90;;;;;;5116186;28;20014;-75
2022/10/20 00:45:16;;;;;;;;;;;7.80;99.90;;;;;;5111143;27;19927;-75
2022/10/20 00:47:46;;;;;;;;;;;7.80;99.90;;;;;;5106889;28;20452;-75
2022/10/20 00:50:15;;;;;;;;;;;7.70;99.90;;;;;;5108091;28;20576;-76
2022/10/20 00:52:43;;;;;;;;;;;7.70;99.90;;;;;;5108696;28;19989;-76
2022/10/20 00:55:11;;;;;;;;;;;7.70;99.90;;;;;;5108117;28;19932;-76
2022/10/20 00:57:38;;;;;;;;;;;7.70;99.90;;;;;;5108495;28;20462;-75
2022/10/20 01:00:07;;;;;;;;;;;7.70;99.90;;;;;;5109061;28;19927;-76
2022/10/20 01:02:35;;;;;;;;;;;7.60;99.90;;;;;;5114262;27;19932;-76
2022/10/20 01:05:03;;;;;;;;;;;7.60;99.90;;;;;;5119729;28;19928;-74
2022/10/20 01:07:29;;;;;;;;;;;7.60;99.90;;;;;;5110889;28;19935;-75
2022/10/20 01:09:56;;;;;;;;;;;7.50;99.90;;;;;;5107506;28;19935;-75
2022/10/20 01:12:28;;;;;;;;;;;7.50;99.90;;;;;;5109353;28;19932;-75
2022/10/20 01:14:59;;;;;;;;;;;7.50;99.90;;;;;;5619944;22;19930;-75
2022/10/20 01:17:30;;;;;;;;;;;7.50;99.90;;;;;;5064720;28;19936;-75
2022/10/20 01:20:17;;;;;;;;;;;7.50;99.90;;;;;;5063597;28;19931;-75
2022/10/20 01:23:08;;;;;;;;;;;7.60;99.90;;;;;;5070604;28;19935;-74
2022/10/20 01:25:44;;;;;;;;;;;7.60;99.90;;;;;;5066905;28;19932;-74
2022/10/20 01:28:16;;;;;;;;;;;7.60;99.90;;;;;;5068922;28;20098;-74
2022/10/20 01:30:45;;;;;;;;;;;7.50;99.90;;;;;;5097889;22;19929;-77
2022/10/20 01:33:17;;;;;;;;;;;7.50;99.90;;;;;;5090011;28;19928;-77
2022/10/20 01:35:51;;;;;;;;;;;7.50;99.90;;;;;;5086438;28;19935;-77
2022/10/20 01:38:23;;;;;;;;;;;7.50;99.90;;;;;;5082694;28;19944;-78
2022/10/20 01:40:51;;;;;;;;;;;7.50;99.90;;;;;;5074817;28;20408;-77
2022/10/20 01:43:20;;;;;;;;;;;7.50;99.90;;;;;;5086068;28;20309;-77
2022/10/20 01:45:48;;;;;;;;;;;7.50;99.90;;;;;;5093113;28;19931;-77
2022/10/20 01:48:16;;;;;;;;;;;7.50;99.90;;;;;;5073780;28;19928;-77
2022/10/20 01:50:43;;;;;;;;;;;7.40;99.90;;;;;;5102821;28;19934;-77
2022/10/20 01:53:11;;;;;;;;;;;7.40;99.90;;;;;;5093702;28;20632;-78
2022/10/20 01:55:38;;;;;;;;;;;7.40;99.90;;;;;;5099235;28;20010;-78
2022/10/20 01:58:12;;;;;;;;;;;7.40;99.90;;;;;;5093973;28;20008;-78
2022/10/20 02:00:41;;;;;;;;;;;7.30;99.90;;;;;;5095300;28;20286;-77
2022/10/20 02:03:16;;;;;;;;;;;7.30;99.90;;;;;;5094368;28;19977;-77
2022/10/20 02:05:51;;;;;;;;;;;7.30;99.90;;;;;;5091100;28;20303;-78
2022/10/20 02:08:22;;;;;;;;;;;7.30;99.90;;;;;;5093663;28;19928;-78
2022/10/20 02:10:50;;;;;;;;;;;7.40;99.90;;;;;;5102295;28;19932;-78
2022/10/20 02:13:18;;;;;;;;;;;7.30;99.90;;;;;;5069667;28;19933;-77
2022/10/20 02:15:48;;;;;;;;;;;7.30;99.90;;;;;;5066922;28;19936;-77
2022/10/20 02:18:17;;;;;;;;;;;7.30;99.90;;;;;;5096348;28;20450;-77
2022/10/20 02:20:46;;;;;;;;;;;7.30;99.90;;;;;;5092886;28;19924;-76
2022/10/20 02:23:13;;;;;;;;;;;7.30;99.90;;;;;;5096854;28;19936;-77
2022/10/20 02:25:40;;;;;;;;;;;7.40;99.90;;;;;;5097983;28;19928;-77
2022/10/20 02:28:09;;;;;;;;;;;7.40;99.90;;;;;;5094810;28;19974;-77
2022/10/20 02:30:36;;;;;;;;;;;7.40;99.90;;;;;;5098123;28;20289;-77
2022/10/20 02:33:05;;;;;;;;;;;7.40;99.90;;;;;;5092987;28;19977;-77
2022/10/20 02:35:32;;;;;;;;;;;7.40;99.90;;;;;;5091176;28;19924;-77
2022/10/20 02:37:59;;;;;;;;;;;7.40;99.90;;;;;;5096669;28;20400;-77
2022/10/20 02:40:26;;;;;;;;;;;7.40;99.90;;;;;;5100017;28;20063;-78
2022/10/20 02:42:53;;;;;;;;;;;7.40;99.90;;;;;;5093756;28;20045;-78
2022/10/20 02:45:20;;;;;;;;;;;7.40;99.90;;;;;;5086505;28;19951;-77
2022/10/20 02:47:46;;;;;;;;;;;7.40;99.90;;;;;;5091465;28;19931;-77
2022/10/20 02:50:15;;;;;;;;;;;7.40;99.90;;;;;;5098974;28;19932;-77
2022/10/20 02:52:42;;;;;;;;;;;7.30;99.90;;;;;;5094434;28;19934;-77
2022/10/20 02:55:09;;;;;;;;;;;7.40;99.90;;;;;;5093895;28;19976;-77
2022/10/20 02:57:36;;;;;;;;;;;7.40;99.90;;;;;;5102963;28;20292;-77
2022/10/20 03:00:03;;;;;;;;;;;7.40;99.90;;;;;;5096910;28;19936;-77
2022/10/20 03:02:30;;;;;;;;;;;7.30;99.90;;;;;;5099625;28;19950;-77
2022/10/20 03:04:56;;;;;;;;;;;7.30;99.90;;;;;;5091398;28;19928;-77
2022/10/20 03:07:24;;;;;;;;;;;7.30;99.90;;;;;;5073460;28;19938;-78
2022/10/20 03:09:51;;;;;;;;;;;7.30;99.90;;;;;;5069228;28;19931;-77
2022/10/20 03:12:18;;;;;;;;;;;7.40;99.90;;;;;;5095768;28;19927;-77
2022/10/20 03:14:45;;;;;;;;;;;7.30;99.90;;;;;;5089586;28;20385;-77
2022/10/20 03:17:11;;;;;;;;;;;7.30;99.90;;;;;;5092503;28;19985;-76
2022/10/20 03:19:39;;;;;;;;;;;7.40;99.90;;;;;;5072776;28;19993;-77
2022/10/20 03:22:06;;;;;;;;;;;7.40;99.90;;;;;;5104301;28;19950;-77
2022/10/20 03:24:34;;;;;;;;;;;7.40;99.90;;;;;;5095281;28;19932;-77
2022/10/20 03:27:01;;;;;;;;;;;7.40;99.90;;;;;;5096557;28;19935;-76
2022/10/20 03:29:27;;;;;;;;;;;7.40;99.90;;;;;;5094673;28;19928;-78
2022/10/20 03:31:54;;;;;;;;;;;7.40;99.90;;;;;;5098696;28;20369;-78
2022/10/20 03:34:21;;;;;;;;;;;7.40;99.90;;;;;;5095148;28;19969;-78
2022/10/20 03:36:47;;;;;;;;;;;7.40;99.90;;;;;;5103010;28;19924;-78
2022/10/20 03:39:14;;;;;;;;;;;7.40;99.90;;;;;;5095310;28;19943;-77
2022/10/20 03:41:42;;;;;;;;;;;7.40;99.90;;;;;;5092503;28;19931;-78
2022/10/20 03:44:09;;;;;;;;;;;7.40;99.90;;;;;;5090032;28;19989;-77
2022/10/20 03:46:36;;;;;;;;;;;7.50;99.90;;;;;;5086962;28;20258;-78
2022/10/20 03:49:03;;;;;;;;;;;7.40;99.90;;;;;;5092483;28;20417;-78
2022/10/20 03:51:30;;;;;;;;;;;7.40;99.90;;;;;;5087292;28;19935;-78
2022/10/20 03:53:56;;;;;;;;;;;7.50;99.90;;;;;;5076435;28;20034;-78
2022/10/20 03:56:23;;;;;;;;;;;7.50;99.90;;;;;;5077068;28;19928;-78
2022/10/20 03:58:51;;;;;;;;;;;7.50;99.90;;;;;;5067551;28;19928;-78
2022/10/20 04:01:20;;;;;;;;;;;7.60;99.90;;;;;;5083802;28;19924;-77
2022/10/20 04:03:46;;;;;;;;;;;7.60;99.90;;;;;;5062700;28;20049;-78
2022/10/20 04:06:13;;;;;;;;;;;7.60;99.90;;;;;;5094884;28;19932;-77
2022/10/20 04:08:40;;;;;;;;;;;;;;;;;;5096187;28;20012;-78
2022/10/20 04:11:07;;;;;;;;;;;7.60;99.90;;;;;;5066043;28;20156;-78
2022/10/20 04:13:34;;;;;;;;;;;7.60;99.90;;;;;;5061007;28;19928;-77
2022/10/20 04:16:03;;;;;;;;;;;7.70;99.90;;;;;;5095292;28;19928;-77
2022/10/20 04:18:30;;;;;;;;;;;7.70;99.90;;;;;;5068245;28;20064;-77
2022/10/20 04:20:57;;;;;;;;;;;7.70;99.90;;;;;;5069306;28;19927;-78
2022/10/20 04:23:24;;;;;;;;;;;7.80;99.90;;;;;;5075005;28;19966;-78
2022/10/20 04:25:50;;;;;;;;;;;7.80;99.90;;;;;;5101347;28;19928;-78
2022/10/20 04:28:18;;;;;;;;;;;7.80;99.90;;;;;;5080309;28;19956;-78
2022/10/20 04:30:47;;;;;;;;;;;7.80;99.90;;;;;;5089681;28;20594;-77
2022/10/20 04:33:16;;;;;;;;;;;7.80;99.90;;;;;;5084216;28;19932;-78
2022/10/20 04:35:42;;;;;;;;;;;7.90;99.90;;;;;;5106849;28;19923;-78
2022/10/20 04:38:09;;;;;;;;;;;7.90;99.90;;;;;;5109315;28;19924;-78
2022/10/20 04:40:36;;;;;;;;;;;7.90;99.90;;;;;;5112021;28;19933;-78
2022/10/20 04:43:02;;;;;;;;;;;7.90;99.90;;;;;;5098439;28;19950;-79
2022/10/20 04:45:29;;;;;;;;;;;7.90;99.90;;;;;;5093069;28;19932;-78
2022/10/20 04:47:56;;;;;;;;;;;8.00;99.90;;;;;;5095552;28;20272;-77
2022/10/20 04:50:24;;;;;;;;;;;8.00;99.90;;;;;;5099634;28;19935;-78
2022/10/20 04:53:06;;;;;;;;;;;8.10;99.90;;;;;;5092524;28;19967;-78
2022/10/20 04:55:33;;;;;;;;;;;8.30;99.90;;;;;;5105869;28;19924;-78
2022/10/20 04:57:59;;;;;;;;;;;8.60;99.90;;;;;;5076277;28;19933;-78
2022/10/20 05:00:28;;;;;;;;;;;8.60;99.90;;;;;;5104219;28;19927;-77
2022/10/20 05:02:55;;;;;;;;;;;8.80;99.90;;;;;;5104008;28;19935;-76
2022/10/20 05:05:23;;;;;;;;;;;9.00;99.90;;;;;;5101060;28;19932;-76
2022/10/20 05:07:51;;;;;;;;;;;9.10;99.90;;;;;;5066074;28;19925;-76
2022/10/20 05:10:19;;;;;;;;;;;9.20;99.90;;;;;;5090676;28;19936;-76
2022/10/20 05:12:46;;;;;;;;;;;9.40;99.90;;;;;;5088876;28;19950;-76
2022/10/20 05:15:12;;;;;;;;;;;9.40;99.90;;;;;;5069286;28;19932;-77
2022/10/20 05:17:39;;;;;;;;;;;9.50;99.90;;;;;;5089586;28;19928;-77
2022/10/20 05:20:06;;;;;;;;;;;9.80;99.90;;;;;;5084724;28;19928;-77
2022/10/20 05:22:33;;;;;;;;;;;9.80;99.90;;;;;;5090747;28;19932;-76
2022/10/20 05:25:01;;;;;;;;;;;10.00;99.90;;;;;;5071966;28;20463;-76
2022/10/20 05:27:28;;;;;;;;;;;10.10;99.90;;;;;;5076555;28;20058;-76
2022/10/20 05:29:55;;;;;;;;;;;10.20;99.90;;;;;;5080637;28;19977;-76
2022/10/20 05:32:22;;;;;;;;;;;10.30;99.90;;;;;;5078789;28;19946;-77
2022/10/20 05:34:48;;;;;;;;;;;10.40;99.90;;;;;;5094273;28;19928;-76
2022/10/20 05:37:15;;;;;;;;;;;10.50;99.90;;;;;;5099811;28;20001;-77
2022/10/20 05:39:42;;;;;;;;;;;10.50;99.90;;;;;;5085886;28;19928;-76
2022/10/20 05:42:10;;;;;;;;;;;10.60;99.90;;;;;;5084175;28;19928;-76
2022/10/20 05:44:37;;;;;;;;;;;10.60;99.90;;;;;;5096250;28;20014;-76
2022/10/20 05:47:04;;;;;;;;;;;10.60;99.90;;;;;;5096010;28;19937;-77
2022/10/20 05:49:30;;;;;;;;;;;10.70;99.90;;;;;;5066109;28;19928;-77
2022/10/20 05:51:57;;;;;;;;;;;10.70;99.90;;;;;;5086270;28;19951;-77
2022/10/20 05:54:24;;;;;;;;;;;10.80;99.90;;;;;;5091123;28;19924;-77
2022/10/20 05:56:50;;;;;;;;;;;10.80;99.90;;;;;;5086335;28;19928;-77
2022/10/20 05:59:18;;;;;;;;;;;10.90;99.90;;;;;;5100480;28;19939;-77
2022/10/20 06:01:48;;;;;;;;;;;11.00;99.90;;;;;;5099862;28;20338;-77
2022/10/20 06:04:15;;;;;;;;;;;11.10;99.90;;;;;;5086345;28;19936;-76
2022/10/20 06:06:43;;;;;;;;;;;11.10;99.90;;;;;;5077457;28;20017;-77
2022/10/20 06:09:10;;;;;;;;;;;11.20;99.90;;;;;;5092420;28;20015;-75
2022/10/20 06:11:37;;;;;;;;;;;11.20;99.90;;;;;;5084771;28;19927;-75
2022/10/20 06:14:04;;;;;;;;;;;11.30;99.90;;;;;;5097135;28;19928;-76
2022/10/20 06:16:32;;;;;;;;;;;11.40;99.90;;;;;;5068380;28;19928;-76
2022/10/20 06:18:59;;;;;;;;;;;11.50;99.90;;;;;;5075574;28;20343;-76
2022/10/20 06:21:28;;;;;;;;;;;11.50;99.90;;;;;;5105424;28;20019;-76
2022/10/20 06:23:54;;;;;;;;;;;11.60;99.90;;;;;;5078801;28;19943;-77
2022/10/20 06:26:22;;;;;;;;;;;11.60;99.90;;;;;;5095777;28;19932;-77
2022/10/20 06:28:50;;;;;;;;;;;11.70;99.90;;;;;;5092052;28;19948;-77
2022/10/20 06:31:18;;;;;;;;;;;11.70;99.90;;;;;;5069315;28;19927;-77
2022/10/20 06:33:46;;;;;;;;;;;11.80;99.90;;;;;;5090279;28;19980;-76
2022/10/20 06:36:13;;;;;;;;;;;11.90;99.90;;;;;;5094963;28;19939;-76
2022/10/20 06:38:40;;;;;;;;;;;11.90;99.90;;;;;;5088616;28;19935;-77
2022/10/20 06:41:08;;;;;;;;;;;12.00;99.90;;;;;;5104127;28;19928;-78
2022/10/20 06:43:35;;;;;;;;;;;12.10;99.90;;;;;;5071975;28;19935;-79
2022/10/20 06:46:03;;;;;;;;;;;12.20;99.90;;;;;;5080508;28;19928;-79
2022/10/20 06:48:30;;;;;;;;;;;12.30;99.90;;;;;;5087381;28;19924;-78
2022/10/20 06:50:58;;;;;;;;;;;12.40;99.90;;;;;;5090993;28;20022;-76
2022/10/20 06:53:25;;;;;;;;;;;12.50;99.90;;;;;;5077854;28;19928;-77
2022/10/20 06:55:56;;;;;;;;;;;14.10;99.90;;;;;;5088271;28;19980;-76
2022/10/20 06:58:22;;;;;;;;;;;12.60;99.90;;;;;;5089829;28;19932;-77
2022/10/20 07:00:57;;;;;;;;;;;12.60;99.90;;;;;;5088766;28;19977;-77
2022/10/20 07:03:24;;;;;;;;;;;12.70;99.90;;;;;;5090207;28;19932;-77
2022/10/20 07:05:51;;;;;;;;;;;12.80;99.90;;;;;;5084777;28;19943;-78
2022/10/20 07:08:19;;;;;;;;;;;13.00;99.90;;;;;;5069488;28;19948;-78
2022/10/20 07:10:45;;;;;;;;;;;13.00;99.90;;;;;;5089665;28;20578;-77
2022/10/20 07:13:12;;;;;;;;;;;13.10;99.90;;;;;;5104208;28;19928;-77
2022/10/20 07:15:39;;;;;;;;;;;13.20;99.90;;;;;;5094011;28;19955;-77
2022/10/20 07:18:05;;;;;;;;;;;13.30;99.90;;;;;;5090393;28;19988;-77
2022/10/20 07:20:33;;;;;;;;;;;13.30;99.90;;;;;;5071283;28;19932;-77
2022/10/20 07:23:00;;;;;;;;;;;13.20;99.90;;;;;;5075482;28;19933;-77
2022/10/20 07:25:29;;;;;;;;;;;13.50;99.90;;;;;;5075423;28;20023;-76
2022/10/20 07:27:56;;;;;;;;;;;13.60;99.90;;;;;;5076944;28;19928;-78
2022/10/20 07:30:23;;;;;;;;;;;13.70;99.90;;;;;;5084327;28;20405;-78
2022/10/20 07:32:49;;;;;;;;;;;13.80;99.90;;;;;;5089105;28;19959;-78
2022/10/20 07:35:16;;;;;;;;;;;13.90;99.90;;;;;;5090603;28;19938;-77
2022/10/20 07:37:43;;;;;;;;;;;14.00;99.90;;;;;;5082123;28;20404;-78
2022/10/20 07:40:10;;;;;;;;;;;14.10;99.90;;;;;;5080633;28;19928;-78
2022/10/20 07:42:38;;;;;;;;;;;14.30;99.90;;;;;;5101740;28;19935;-78
2022/10/20 07:45:06;;;;;;;;;;;14.40;99.90;;;;;;5095967;28;19964;-76
2022/10/20 07:47:33;;;;;;;;;;;14.60;99.90;;;;;;5091182;28;19928;-77
2022/10/20 07:50:00;;;;;;;;;;;14.80;99.90;;;;;;5093554;28;19959;-78
2022/10/20 07:52:29;;;;;;;;;;;14.90;99.90;;;;;;5091117;28;19932;-78
2022/10/20 07:54:55;;;;;;;;;;;15.00;99.90;;;;;;5090074;28;20002;-77
2022/10/20 07:57:22;;;;;;;;;;;15.10;99.90;;;;;;5082747;28;19928;-77
2022/10/20 07:59:51;;;;;;;;;;;15.10;99.90;;;;;;5087646;28;20038;-77
2022/10/20 08:02:19;;;;;;;;;;;15.10;99.90;;;;;;5092525;28;19939;-77
2022/10/20 08:04:46;;;;;;;;;;;15.10;99.90;;;;;;5083616;28;19928;-78
2022/10/20 08:07:13;;;;;;;;;;;15.10;99.90;;;;;;5090398;28;19932;-77
2022/10/20 08:09:39;;;;;;;;;;;15.10;99.90;;;;;;5072151;28;19935;-78
2022/10/20 08:12:06;;;;;;;;;;;15.10;99.90;;;;;;5071188;28;19932;-77
2022/10/20 08:14:35;;;;;;;;;;;15.20;99.90;;;;;;5082020;28;20066;-77
2022/10/20 08:17:03;;;;;;;;;;;15.20;99.90;;;;;;5072632;28;19935;-78
2022/10/20 08:19:30;;;;;;;;;;;15.30;99.90;;;;;;5082946;28;19935;-76
2022/10/20 08:21:57;;;;;;;;;;;15.30;99.90;;;;;;5092166;28;19990;-77
2022/10/20 08:24:24;;;;;;;;;;;15.40;99.90;;;;;;5094851;28;19924;-77
2022/10/20 08:26:51;;;;;;;;;;;15.50;99.90;;;;;;5089390;28;20376;-77
2022/10/20 08:29:17;;;;;;;;;;;15.60;99.90;;;;;;5077900;28;19939;-78
2022/10/20 08:31:44;;;;;;;;;;;15.70;99.90;;;;;;5084754;28;20383;-77
2022/10/20 08:34:12;;;;;;;;;;;15.70;99.90;;;;;;5065573;28;19928;-77
2022/10/20 08:36:39;;;;;;;;;;;15.80;99.90;;;;;;5095864;28;19928;-77
2022/10/20 08:39:06;;;;;;;;;;;15.80;99.90;;;;;;5067779;28;19932;-78
2022/10/20 08:41:34;;;;;;;;;;;15.90;99.90;;;;;;5083985;28;20001;-77
2022/10/20 08:44:02;;;;;;;;;;;16.00;99.90;;;;;;5091791;28;20034;-75
2022/10/20 08:46:30;;;;;;;;;;;16.10;99.90;;;;;;5069760;28;19931;-75
2022/10/20 08:51:27;;;;;;;;;;;14.90;99.90;;;;;;5004725;28;19979;-78
2022/10/20 08:53:56;;;;;;;;;;;16.40;99.90;;;;;;5004909;28;20386;-79
2022/10/20 08:56:27;;;;;;;;;;;16.50;99.90;;;;;;5001373;28;19929;-79
2022/10/20 08:58:54;;;;;;;;;;;16.50;99.90;;;;;;5031181;28;20101;-79
2022/10/20 09:01:22;;;;;;;;;;;16.50;99.90;;;;;;5016204;28;19945;-79
2022/10/20 09:03:51;;;;;;;;;;;16.60;99.90;;;;;;5016727;28;19976;-79
2022/10/20 09:06:18;;;;;;;;;;;16.60;99.90;;;;;;5014035;28;19933;-79
2022/10/20 09:08:47;;;;;;;;;;;16.60;99.90;;;;;;5010797;28;19930;-78
2022/10/20 09:11:16;;;;;;;;;;;16.60;99.90;;;;;;5016756;28;19929;-78
2022/10/20 09:13:43;;;;;;;;;;;16.60;99.90;;;;;;5012941;28;20005;-78
2022/10/20 09:16:13;;;;;;;;;;;16.60;99.90;;;;;;5014737;28;19930;-77
2022/10/20 09:18:40;;;;;;;;;;;16.60;99.90;;;;;;5014336;28;20538;-79
2022/10/20 09:21:09;;;;;;;;;;;16.60;99.90;;;;;;5015363;28;20370;-78
2022/10/20 09:23:38;;;;;;;;;;;16.60;99.90;;;;;;5010066;28;20523;-80
2022/10/20 09:26:10;;;;;;;;;;;16.60;99.90;;;;;;5022926;28;19925;-77
2022/10/20 09:28:37;;;;;;;;;;;16.60;99.90;;;;;;5001721;28;19956;-77
2022/10/20 09:31:19;;;;;;;;;;;16.60;99.90;;;;;;5012945;28;20377;-78
2022/10/20 09:33:46;;;;;;;;;;;16.50;99.90;;;;;;5016483;28;19936;-79
2022/10/20 09:36:14;;;;;;;;;;;16.50;99.90;;;;;;5018281;28;19929;-79
2022/10/20 09:38:42;;;;;;;;;;;16.50;99.90;;;;;;5017916;28;20041;-79
2022/10/20 09:41:13;;;;;;;;;;;16.50;99.90;;;;;;5016283;28;19973;-79
2022/10/20 09:43:41;;;;;;;;;;;16.40;99.90;;;;;;5015922;28;19933;-79
2022/10/20 09:46:09;;;;;;;;;;;16.40;99.90;;;;;;5014700;28;19926;-80
2022/10/20 09:48:38;;;;;;;;;;;16.30;99.90;;;;;;5014060;28;19996;-80
2022/10/20 09:51:07;;;;;;;;;;;16.10;99.90;;;;;;5032476;28;19936;-79
2022/10/20 09:53:37;;;;;;;;;;;16.20;99.90;;;;;;5038856;28;19968;-80
2022/10/20 09:56:05;;;;;;;;;;;16.20;99.90;;;;;;5017809;28;19929;-79
2022/10/20 09:58:36;;;;;;;;;;;16.20;99.90;;;;;;5019314;28;19932;-79
2022/10/20 10:01:04;;;;;;;;;;;16.20;99.90;;;;;;5017368;28;19925;-80
2022/10/20 10:03:43;;;;;;;;;;;16.20;99.90;;;;;;5021395;28;19929;-78
2022/10/20 10:06:22;;;;;;;;;;;16.20;99.90;;;;;;5027167;28;19956;-78
2022/10/20 10:08:49;;;;;;;;;;;16.10;99.90;;;;;;5020077;28;19932;-81
2022/10/20 10:11:17;;;;;;;;;;;16.10;99.90;;;;;;5029520;28;20008;-80
2022/10/20 10:13:48;;;;;;;;;;;16.10;99.90;;;;;;5025533;28;19925;-80
2022/10/20 10:16:16;;;;;;;;;;;16.00;99.90;;;;;;5040147;28;19948;-80
2022/10/20 10:18:44;;;;;;;;;;;16.10;99.90;;;;;;5040353;28;19929;-78
2022/10/20 10:21:12;;;;;;;;;;;16.10;99.90;;;;;;5022549;28;20381;-80
2022/10/20 10:23:50;;;;;;;;;;;16.20;99.90;;;;;;5023346;28;19944;-79
2022/10/20 10:26:34;;;;;;;;;;;16.30;99.90;;;;;;5024027;28;19976;-79
2022/10/20 10:29:03;;;;;;;;;;;16.50;99.90;;;;;;5016746;28;19929;-79
2022/10/20 10:31:32;;;;;;;;;;;16.60;99.90;;;;;;5028121;28;19928;-79
2022/10/20 10:34:21;;;;;;;;;;;16.60;99.90;;;;;;5042786;28;19928;-79
2022/10/20 10:36:48;;;;;;;;;;;16.60;99.90;;;;;;5013714;28;20400;-79
2022/10/20 10:39:15;;;;;;;;;;;16.60;99.90;;;;;;5043242;28;19925;-78
2022/10/20 10:41:54;;;;;;;;;;;16.60;99.90;;;;;;5025738;28;19929;-79
2022/10/20 10:44:30;;;;;;;;;;;16.50;99.90;;;;;;5024167;28;19929;-79
2022/10/20 10:47:02;;;;;;;;;;;16.60;99.90;;;;;;5057095;28;19955;-80
2022/10/20 10:49:37;;;;;;;;;;;16.70;99.90;;;;;;5041262;28;19935;-78
2022/10/20 10:52:10;;;;;;;;;;;16.70;99.90;;;;;;5024119;28;19933;-78
2022/10/20 10:54:44;;;;;;;;;;;16.80;99.90;;;;;;5025123;28;19925;-78
2022/10/20 10:57:17;;;;;;;;;;;16.80;99.90;;;;;;5025229;28;19935;-80
2022/10/20 10:59:57;;;;;;;;;;;17.00;99.90;;;;;;5043444;28;20008;-80
2022/10/20 11:02:50;;;;;;;;;;;17.00;99.90;;;;;;5040973;28;19936;-78
2022/10/20 11:05:21;;;;;;;;;;;17.10;99.90;;;;;;5040561;28;20391;-77
2022/10/20 11:07:52;;;;;;;;;;;17.10;99.90;;;;;;5038806;28;19929;-79
2022/10/20 11:10:22;;;;;;;;;;;17.10;99.90;;;;;;5017859;28;19934;-79
2022/10/20 11:12:57;;;;;;;;;;;17.00;99.90;;;;;;5002976;28;20788;-80
2022/10/20 11:15:39;;;;;;;;;;;16.90;99.90;;;;;;5018211;28;19937;-78
2022/10/20 11:18:11;;;;;;;;;;;16.70;99.90;;;;;;5009376;28;19967;-79
2022/10/20 11:20:42;;;;;;;;;;;16.50;99.90;;;;;;5040164;28;19944;-78
2022/10/20 11:23:23;;;;;;;;;;;16.50;99.90;;;;;;5027527;28;20454;-79
2022/10/20 11:25:54;;;;;;;;;;;16.50;99.90;;;;;;5037271;28;20694;-79
2022/10/20 11:28:27;;;;;;;;;;;16.50;99.90;;;;;;5037340;28;19925;-77
2022/10/20 11:30:56;;;;;;;;;;;16.50;99.90;;;;;;5036308;28;19929;-78
2022/10/20 11:33:27;;;;;;;;;;;16.50;99.90;;;;;;5031230;28;20000;-78
2022/10/20 11:35:56;;;;;;;;;;;16.50;99.90;;;;;;5019711;28;19996;-79
2022/10/20 11:38:30;;;;;;;;;;;16.40;99.90;;;;;;5022671;28;19975;-79
2022/10/20 11:41:00;;;;;;;;;;;16.30;99.90;;;;;;5035922;28;19987;-79
2022/10/20 11:43:32;;;;;;;;;;;16.20;99.90;;;;;;5027473;28;19929;-77
2022/10/20 11:46:03;;;;;;;;;;;16.10;99.90;;;;;;5041580;28;19938;-78
2022/10/20 11:48:34;;;;;;;;;;;16.00;99.90;;;;;;5043972;28;19933;-78
2022/10/20 11:51:23;;;;;;;;;;;15.90;99.90;;;;;;5039555;28;19979;-79
2022/10/20 11:53:57;;;;;;;;;;;15.80;99.90;;;;;;5022519;28;19929;-78
2022/10/20 11:56:42;;;;;;;;;;;15.70;99.90;;;;;;5017720;28;19926;-78
2022/10/20 11:59:18;;;;;;;;;;;15.60;99.90;;;;;;5018737;28;19929;-78
2022/10/20 12:02:02;;;;;;;;;;;15.50;99.90;;;;;;5020022;28;19932;-78
2022/10/20 12:04:38;;;;;;;;;;;15.50;99.90;;;;;;5038405;28;19960;-80
2022/10/20 12:07:19;;;;;;;;;;;15.40;99.90;;;;;;5020095;28;19933;-80
2022/10/20 12:10:19;;;;;;;;;;;15.40;99.90;;;;;;5020652;28;20397;-79
2022/10/20 12:12:51;;;;;;;;;;;15.30;99.90;;;;;;4941081;29;19972;-78
2022/10/20 12:15:20;;;;;;;;;;;15.30;99.90;;;;;;4957131;29;19994;-78
2022/10/20 12:17:49;;;;;;;;;;;15.30;99.90;;;;;;4985699;28;19929;-78
2022/10/20 12:20:36;;;;;;;;;;;15.30;99.90;;;;;;5026663;28;19936;-77
2022/10/20 12:23:04;;;;;;;;;;;15.30;99.90;;;;;;5039641;28;19913;-80
2022/10/20 12:25:39;;;;;;;;;;;15.30;99.90;;;;;;5019751;28;19943;-77
2022/10/20 12:28:31;;;;;;;;;;;15.20;99.90;;;;;;5010619;28;19955;-78
2022/10/20 12:30:58;;;;;;;;;;;15.10;99.90;;;;;;5027640;28;19925;-80
2022/10/20 12:33:37;;;;;;;;;;;15.10;99.90;;;;;;5006260;28;19929;-78
2022/10/20 12:36:23;;;;;;;;;;;15.10;99.90;;;;;;5028805;28;19952;-78
2022/10/20 12:38:52;;;;;;;;;;;15.10;99.90;;;;;;5013668;28;20606;-79
2022/10/20 12:41:24;;;;;;;;;;;15.10;99.90;;;;;;5023533;28;19937;-79
2022/10/20 12:43:53;;;;;;;;;;;15.10;99.90;;;;;;5010650;28;19929;-79
2022/10/20 12:46:22;;;;;;;;;;;15.30;99.90;;;;;;5020557;28;19952;-79
2022/10/20 12:48:56;;;;;;;;;;;15.40;99.90;;;;;;5026620;28;19995;-79
2022/10/20 12:51:25;;;;;;;;;;;15.50;99.90;;;;;;5006204;28;20495;-79
2022/10/20 12:53:56;;;;;;;;;;;15.60;99.90;;;;;;5004156;28;19956;-79
2022/10/20 12:56:25;;;;;;;;;;;15.70;99.90;;;;;;5008280;28;19960;-79
2022/10/20 12:59:11;;;;;;;;;;;15.90;99.90;;;;;;5006705;28;19980;-78
2022/10/20 13:01:54;;;;;;;;;;;16.20;99.90;;;;;;5004414;28;19936;-79
2022/10/20 13:04:40;;;;;;;;;;;16.30;99.90;;;;;;5024096;28;19928;-78
2022/10/20 13:07:09;;;;;;;;;;;16.30;99.90;;;;;;5026316;28;19939;-79
2022/10/20 13:09:53;;;;;;;;;;;16.30;99.90;;;;;;5008793;28;19933;-78
2022/10/20 13:12:25;;;;;;;;;;;16.30;99.90;;;;;;5009692;28;19948;-78
2022/10/20 13:14:55;;;;;;;;;;;16.20;99.90;;;;;;5006412;28;19933;-78
2022/10/20 13:17:25;;;;;;;;;;;16.10;99.90;;;;;;5020708;28;19933;-78
2022/10/20 13:19:54;;;;;;;;;;;16.10;99.90;;;;;;5027658;28;19944;-79
2022/10/20 13:22:29;;;;;;;;;;;16.00;99.90;;;;;;5010203;28;20000;-79
2022/10/20 13:24:56;;;;;;;;;;;16.10;99.90;;;;;;5006562;28;19929;-79
2022/10/20 13:27:23;;;;;;;;;;;16.20;99.90;;;;;;5027552;28;19956;-78
2022/10/20 13:29:51;;;;;;;;;;;16.40;99.90;;;;;;5002976;28;19930;-79
2022/10/20 13:32:21;;;;;;;;;;;16.50;99.90;;;;;;5027386;28;19998;-78
2022/10/20 13:34:51;;;;;;;;;;;16.60;99.90;;;;;;5027592;28;19936;-78
2022/10/20 13:37:35;;;;;;;;;;;16.60;99.90;;;;;;5012328;28;20336;-78
2022/10/20 13:40:09;;;;;;;;;;;16.80;99.90;;;;;;5005481;28;19952;-78
2022/10/20 13:42:41;;;;;;;;;;;16.80;99.90;;;;;;5009530;28;20393;-78
2022/10/20 13:45:12;;;;;;;;;;;17.00;99.90;;;;;;5023106;28;19983;-79
2022/10/20 13:47:46;;;;;;;;;;;17.20;99.90;;;;;;5027066;28;19937;-81
2022/10/20 13:50:15;;;;;;;;;;;17.20;99.90;;;;;;5014680;28;19961;-78
2022/10/20 13:52:46;;;;;;;;;;;17.30;99.90;;;;;;5031895;28;19929;-80
2022/10/20 13:55:16;;;;;;;;;;;17.30;99.90;;;;;;5033058;28;19929;-78
2022/10/20 13:57:48;;;;;;;;;;;17.30;99.90;;;;;;5016071;28;19933;-77
2022/10/20 14:00:17;;;;;;;;;;;17.40;99.90;;;;;;5110498;22;19910;-76
2022/10/20 14:02:51;;;;;;;;;;;18.00;99.90;;;;;;5066333;28;19951;-78
2022/10/20 14:05:20;;;;;;;;;;;17.60;99.90;;;;;;5066695;28;19955;-77
2022/10/20 14:07:49;;;;;;;;;;;17.70;99.90;;;;;;5068595;28;20308;-77
2022/10/20 14:10:36;;;;;;;;;;;17.70;99.90;;;;;;5068546;28;19933;-77
2022/10/20 14:13:07;;;;;;;;;;;17.60;99.90;;;;;;5067844;28;20262;-76
2022/10/20 14:15:35;;;;;;;;;;;17.40;99.90;;;;;;5071972;28;20440;-77
2022/10/20 14:18:02;;;;;;;;;;;17.20;99.90;;;;;;5069759;28;20389;-78
2022/10/20 14:20:30;;;;;;;;;;;17.10;99.90;;;;;;5061373;28;20015;-78
2022/10/20 14:22:59;;;;;;;;;;;17.00;99.90;;;;;;5067916;28;19928;-78
2022/10/20 14:25:26;;;;;;;;;;;16.90;99.90;;;;;;5071147;28;20408;-77
2022/10/20 14:27:53;;;;;;;;;;;16.90;99.90;;;;;;5071995;28;20023;-76
2022/10/20 14:30:20;;;;;;;;;;;16.90;99.90;;;;;;5071056;28;19925;-77
2022/10/20 14:32:50;;;;;;;;;;;16.90;99.90;;;;;;5071231;28;19928;-77
2022/10/20 14:35:25;;;;;;;;;;;16.90;99.90;;;;;;5079205;28;19928;-79
2022/10/20 14:37:54;;;;;;;;;;;16.90;99.90;;;;;;5078315;28;19959;-80